createdAt,value
2019-06-26T00:02:18.218Z,99.90
2019-06-26T00:04:49.483Z,99.90
2019-06-26T00:07:21.211Z,99.90
2019-06-26T00:09:52.330Z,99.90
2019-06-26T00:12:23.347Z,99.90
2019-06-26T00:14:54.579Z,99.90
2019-06-26T00:17:25.483Z,99.90
2019-06-26T00:19:56.759Z,99.90
2019-06-26T00:22:27.806Z,99.90
2019-06-26T00:24:59.568Z,99.90
2019-06-26T00:27:31.187Z,99.90
2019-06-26T00:30:02.507Z,99.90
2019-06-26T00:32:33.834Z,99.90
2019-06-26T00:35:04.856Z,99.90
2019-06-26T00:37:37.142Z,99.90
2019-06-26T00:40:08.044Z,99.90
2019-06-26T00:42:39.934Z,99.90
2019-06-26T00:45:11.980Z,99.90
2019-06-26T00:47:43.087Z,99.90
2019-06-26T00:50:14.666Z,99.90
2019-06-26T00:52:45.833Z,99.90
2019-06-26T00:55:16.670Z,99.90
2019-06-26T00:57:49.142Z,99.90
2019-06-26T02:00:59.004Z,99.90
2019-06-26T02:03:38.759Z,99.90
2019-06-26T02:06:09.624Z,99.90
2019-06-26T02:08:40.895Z,99.90
2019-06-26T02:11:12.499Z,99.90
2019-06-26T02:13:43.832Z,99.90
2019-06-26T02:16:15.393Z,99.90
2019-06-26T02:18:54.022Z,99.90
2019-06-26T02:21:25.826Z,99.90
2019-06-26T02:23:57.447Z,99.90
2019-06-26T02:26:28.664Z,99.90
2019-06-26T02:28:59.559Z,99.90
2019-06-26T02:31:31.668Z,99.90
2019-06-26T02:34:05.830Z,99.90
2019-06-26T02:36:36.574Z,99.90
2019-06-26T02:39:08.308Z,99.90
2019-06-26T02:41:39.188Z,99.90
2019-06-26T02:44:10.864Z,99.90
2019-06-26T02:46:42.735Z,99.90
2019-06-26T02:49:13.976Z,99.90
2019-06-26T02:51:45.440Z,99.90
2019-06-26T02:54:16.640Z,99.90
2019-06-26T02:56:47.919Z,99.90
2019-06-26T02:59:19.123Z,99.90
2019-06-26T03:01:50.544Z,99.90
2019-06-26T03:04:22.485Z,99.90
2019-06-26T03:06:53.336Z,99.90
2019-06-26T03:09:24.532Z,99.90
2019-06-26T03:11:55.760Z,99.90
2019-06-26T03:14:26.355Z,99.90
2019-06-26T03:16:57.571Z,99.90
2019-06-26T03:19:28.423Z,99.90
2019-06-26T03:21:59.761Z,99.90
2019-06-26T03:24:30.598Z,99.90
2019-06-26T03:27:01.483Z,99.90
2019-06-26T03:29:32.749Z,99.90
2019-06-26T03:32:03.678Z,99.90
2019-06-26T03:34:34.859Z,99.90
2019-06-26T03:37:06.127Z,99.90
2019-06-26T03:39:37.119Z,99.90
2019-06-26T03:42:08.196Z,99.90
2019-06-26T03:44:38.719Z,99.90
2019-06-26T03:47:09.271Z,99.90
2019-06-26T03:49:40.211Z,99.90
2019-06-26T03:52:11.782Z,99.90
2019-06-26T03:54:43.373Z,99.90
2019-06-26T03:57:14.832Z,99.90
2019-06-26T03:59:46.160Z,99.90
2019-06-26T04:02:17.455Z,99.90
2019-06-26T04:04:48.810Z,99.90
2019-06-26T04:07:20.045Z,99.90
2019-06-26T04:09:51.287Z,99.90
2019-06-26T04:12:22.093Z,99.90
2019-06-26T04:14:53.333Z,99.90
2019-06-26T04:17:24.496Z,99.90
2019-06-26T04:19:55.594Z,99.90
2019-06-26T04:22:26.763Z,99.90
2019-06-26T04:24:57.636Z,99.90
2019-06-26T04:27:28.991Z,99.90
2019-06-26T04:30:00.205Z,99.90
2019-06-26T04:32:31.271Z,99.90
2019-06-26T04:35:02.935Z,99.90
2019-06-26T04:37:33.979Z,99.90
2019-06-26T04:40:05.115Z,99.90
2019-06-26T04:42:36.276Z,99.90
2019-06-26T04:45:07.985Z,99.90
2019-06-26T04:47:38.530Z,99.90
2019-06-26T04:50:10.054Z,99.90
2019-06-26T04:52:41.202Z,99.90
2019-06-26T04:55:13.228Z,99.90
2019-06-26T04:57:44.218Z,99.90
2019-06-26T05:00:16.655Z,99.90
2019-06-26T05:02:48.969Z,99.90
2019-06-26T05:05:19.899Z,99.90
2019-06-26T05:07:53.735Z,99.90
2019-06-26T05:10:23.594Z,99.90
2019-06-26T05:12:54.921Z,99.90
2019-06-26T05:15:25.936Z,99.90
2019-06-26T05:17:57.189Z,99.90
2019-06-26T05:20:28.047Z,99.90
2019-06-26T05:22:59.268Z,99.90
2019-06-26T05:25:30.481Z,99.90
2019-06-26T05:28:01.738Z,99.90
2019-06-26T05:30:33.499Z,99.90
2019-06-26T05:33:04.345Z,99.90
2019-06-26T05:35:35.962Z,99.90
2019-06-26T05:38:06.818Z,99.90
2019-06-26T05:40:38.707Z,99.90
2019-06-26T05:43:12.131Z,99.90
2019-06-26T05:45:44.238Z,99.90
2019-06-26T05:48:15.391Z,99.90
2019-06-26T05:50:47.036Z,99.90
2019-06-26T05:53:18.522Z,99.90
2019-06-26T05:55:49.423Z,99.90
2019-06-26T05:58:20.610Z,99.90
2019-06-26T06:00:52.951Z,99.90
2019-06-26T06:03:24.009Z,99.90
2019-06-26T06:05:55.383Z,99.90
2019-06-26T06:10:58.252Z,99.90
2019-06-26T06:13:29.672Z,99.90
2019-06-26T06:16:00.756Z,99.90
2019-06-26T06:18:31.751Z,99.90
2019-06-26T06:21:03.247Z,99.90
2019-06-26T06:23:34.885Z,99.90
2019-06-26T06:26:06.416Z,99.90
2019-06-26T06:28:37.246Z,99.90
2019-06-26T06:31:08.052Z,99.90
2019-06-26T06:33:39.165Z,99.90
2019-06-26T06:36:10.375Z,99.90
2019-06-26T06:38:41.556Z,99.90
2019-06-26T06:41:13.013Z,99.90
2019-06-26T06:43:44.638Z,99.90
2019-06-26T06:46:15.806Z,99.90
2019-06-26T06:48:46.627Z,99.90
2019-06-26T06:51:18.204Z,99.90
2019-06-26T06:53:49.786Z,99.90
2019-06-26T06:56:21.134Z,99.90
2019-06-26T06:58:52.540Z,99.90
2019-06-26T07:01:23.063Z,99.90
2019-06-26T07:03:55.260Z,99.90
2019-06-26T07:06:26.694Z,99.90
2019-06-26T07:08:57.485Z,99.90
2019-06-26T07:11:29.495Z,99.90
2019-06-26T07:14:00.623Z,99.90
2019-06-26T07:16:32.501Z,99.90
2019-06-26T07:19:03.367Z,99.90
2019-06-26T07:21:34.537Z,99.90
2019-06-26T07:24:08.905Z,99.90
2019-06-26T07:26:40.112Z,99.90
2019-06-26T07:29:11.240Z,99.90
2019-06-26T07:31:42.947Z,99.90
2019-06-26T07:34:14.159Z,99.90
2019-06-26T07:36:45.304Z,99.90
2019-06-26T07:39:16.488Z,99.90
2019-06-26T07:41:47.015Z,99.90
2019-06-26T07:44:17.917Z,99.90
2019-06-26T07:46:48.940Z,99.90
2019-06-26T07:49:20.643Z,99.90
2019-06-26T07:51:51.535Z,99.90
2019-06-26T07:54:22.095Z,99.90
2019-06-26T07:56:53.310Z,99.90
2019-06-26T07:59:24.884Z,99.90
2019-06-26T08:01:55.751Z,99.90
2019-06-26T08:04:27.038Z,99.90
2019-06-26T08:06:58.288Z,99.90
2019-06-26T08:09:29.925Z,99.90
2019-06-26T08:12:01.471Z,99.90
2019-06-26T08:14:32.324Z,99.90
2019-06-26T08:17:03.574Z,99.90
2019-06-26T08:19:35.397Z,99.90
2019-06-26T08:22:07.522Z,99.90
2019-06-26T08:24:39.017Z,99.90
2019-06-26T08:27:12.969Z,99.90
2019-06-26T08:29:43.295Z,99.90
2019-06-26T08:32:14.196Z,99.90
2019-06-26T08:34:46.150Z,99.90
2019-06-26T08:37:17.737Z,99.90
2019-06-26T08:39:48.887Z,99.90
2019-06-26T08:42:20.764Z,99.90
2019-06-26T08:44:52.213Z,99.90
2019-06-26T08:47:23.651Z,99.90
2019-06-26T08:49:55.253Z,99.90
2019-06-26T08:52:26.316Z,99.90
2019-06-26T08:54:57.443Z,99.90
2019-06-26T08:57:28.422Z,99.90
2019-06-26T08:59:59.653Z,99.90
2019-06-26T09:02:31.968Z,99.90
2019-06-26T09:05:03.207Z,99.90
2019-06-26T09:07:34.182Z,99.90
2019-06-26T09:10:04.971Z,99.90
2019-06-26T09:12:35.914Z,99.90
2019-06-26T09:15:07.072Z,99.90
2019-06-26T09:17:39.645Z,99.90
2019-06-26T09:20:11.283Z,99.90
2019-06-26T09:22:42.204Z,99.90
2019-06-26T09:25:21.491Z,99.90
2019-06-26T09:27:46.836Z,99.90
2019-06-26T09:30:18.806Z,99.90
2019-06-26T09:32:50.767Z,99.90
2019-06-26T09:35:21.687Z,99.90
2019-06-26T09:37:52.971Z,99.90
2019-06-26T09:40:24.219Z,99.90
2019-06-26T09:42:55.498Z,99.90
2019-06-26T09:45:26.493Z,99.90
2019-06-26T09:47:57.909Z,99.90
2019-06-26T09:50:29.067Z,99.90
2019-06-26T09:53:00.382Z,99.90
2019-06-26T09:55:32.828Z,99.90
2019-06-26T09:58:04.023Z,99.90
2019-06-26T10:00:36.310Z,99.90
2019-06-26T10:03:07.566Z,99.90
2019-06-26T10:05:39.297Z,99.90
2019-06-26T10:08:10.910Z,99.90
2019-06-26T10:10:41.809Z,99.90
2019-06-26T10:13:12.398Z,99.90
2019-06-26T10:15:43.549Z,99.90
2019-06-26T10:18:15.031Z,99.90
2019-06-26T10:20:45.852Z,99.90
2019-06-26T10:23:17.039Z,99.90
2019-06-26T10:25:48.536Z,99.90
2019-06-26T10:28:19.703Z,99.90
2019-06-26T10:30:52.259Z,99.90
2019-06-26T10:33:22.791Z,99.90
2019-06-26T10:35:53.734Z,99.90
2019-06-26T10:38:25.133Z,99.90
2019-06-26T10:40:55.752Z,99.90
2019-06-26T10:43:26.672Z,99.90
2019-06-26T10:45:57.974Z,99.90
2019-06-26T10:48:29.359Z,99.90
2019-06-26T10:51:00.215Z,99.90
2019-06-26T10:53:31.483Z,99.90
2019-06-26T10:56:02.801Z,99.90
2019-06-26T10:58:34.083Z,99.10
2019-06-26T11:01:05.783Z,99.10
2019-06-26T11:03:38.105Z,98.30
2019-06-26T11:06:09.348Z,99.90
2019-06-26T11:08:40.840Z,97.30
2019-06-26T11:11:12.375Z,96.40
2019-06-26T11:13:43.584Z,95.50
2019-06-26T11:16:14.735Z,97.60
2019-06-26T11:18:46.529Z,95.50
2019-06-26T11:21:18.306Z,95.00
2019-06-26T11:23:50.313Z,95.70
2019-06-26T11:26:21.560Z,96.10
2019-06-26T11:28:52.774Z,94.00
2019-06-26T11:31:24.023Z,94.90
2019-06-26T11:33:55.333Z,95.20
2019-06-26T11:36:27.249Z,94.10
2019-06-26T11:38:58.938Z,95.20
2019-06-26T11:41:30.306Z,93.70
2019-06-26T11:44:01.685Z,94.40
2019-06-26T11:46:33.464Z,93.70
2019-06-26T11:49:04.189Z,93.50
2019-06-26T11:51:35.104Z,92.20
2019-06-26T11:54:06.603Z,93.60
2019-06-26T11:56:38.302Z,91.30
2019-06-26T11:59:09.618Z,93.00
2019-06-26T12:01:40.561Z,91.90
2019-06-26T12:04:13.039Z,91.80
2019-06-26T12:06:45.908Z,90.00
2019-06-26T12:09:17.544Z,90.80
2019-06-26T12:11:48.854Z,89.40
2019-06-26T12:14:20.199Z,91.00
2019-06-26T12:16:50.761Z,90.20
2019-06-26T12:19:23.585Z,90.20
2019-06-26T12:21:54.312Z,90.10
2019-06-26T12:24:26.527Z,89.60
2019-06-26T12:26:58.178Z,90.00
2019-06-26T12:29:32.851Z,90.50
2019-06-26T12:32:07.907Z,88.00
2019-06-26T12:34:39.111Z,91.00
2019-06-26T12:37:10.461Z,90.60
2019-06-26T12:39:41.326Z,90.70
2019-06-26T12:42:12.707Z,89.50
2019-06-26T12:44:44.230Z,88.70
2019-06-26T12:47:15.478Z,88.30
2019-06-26T12:49:46.602Z,87.20
2019-06-26T12:52:17.561Z,86.20
2019-06-26T12:54:48.756Z,87.80
2019-06-26T12:57:20.668Z,88.60
2019-06-26T12:59:57.332Z,84.50
2019-06-26T13:02:25.271Z,82.10
2019-06-26T13:04:56.195Z,82.00
2019-06-26T13:07:30.729Z,83.50
2019-06-26T13:10:02.755Z,83.80
2019-06-26T13:12:34.895Z,78.80
2019-06-26T13:15:05.919Z,80.10
2019-06-26T13:17:37.858Z,81.20
2019-06-26T13:22:41.619Z,79.30
2019-06-26T13:25:15.984Z,76.00
2019-06-26T13:27:52.784Z,75.70
2019-06-26T13:30:30.717Z,78.00
2019-06-26T13:33:02.631Z,79.60
2019-06-26T13:35:36.098Z,78.70
2019-06-26T13:38:08.783Z,76.30
2019-06-26T13:40:41.384Z,77.90
2019-06-26T13:43:12.911Z,76.60
2019-06-26T13:45:44.207Z,76.60
2019-06-26T13:48:16.180Z,73.50
2019-06-26T13:50:47.719Z,78.00
2019-06-26T13:53:20.337Z,75.70
2019-06-26T13:55:51.658Z,72.20
2019-06-26T13:58:23.136Z,73.10
2019-06-26T14:00:54.477Z,73.50
2019-06-26T14:03:25.825Z,75.80
2019-06-26T14:05:57.555Z,72.20
2019-06-26T14:08:32.703Z,73.30
2019-06-26T14:11:02.447Z,72.70
2019-06-26T14:13:33.890Z,75.60
2019-06-26T14:16:05.253Z,72.30
2019-06-26T14:18:39.868Z,73.10
2019-06-26T14:21:24.509Z,72.00
2019-06-26T14:23:44.111Z,72.60
2019-06-26T14:26:15.747Z,72.30
2019-06-26T14:28:48.565Z,70.80
2019-06-26T14:31:20.037Z,72.10
2019-06-26T14:33:51.539Z,72.30
2019-06-26T14:36:23.675Z,70.90
2019-06-26T14:38:55.507Z,71.10
2019-06-26T14:41:27.223Z,71.90
2019-06-26T14:43:58.459Z,71.70
2019-06-26T14:46:30.538Z,69.40
2019-06-26T14:49:02.016Z,70.20
2019-06-26T14:51:45.490Z,71.30
2019-06-26T14:54:14.716Z,71.30
2019-06-26T14:56:45.532Z,71.10
2019-06-26T14:59:16.743Z,71.60
2019-06-26T15:01:49.036Z,69.40
2019-06-26T15:04:21.030Z,70.20
2019-06-26T15:06:53.187Z,71.30
2019-06-26T15:09:26.034Z,72.30
2019-06-26T15:14:27.700Z,73.10
2019-06-26T15:16:58.370Z,74.10
2019-06-26T15:19:29.994Z,69.30
2019-06-26T15:22:01.819Z,70.50
2019-06-26T15:24:32.775Z,70.70
2019-06-26T15:27:07.639Z,70.00
2019-06-26T15:29:39.321Z,70.00
2019-06-26T15:32:10.978Z,71.00
2019-06-26T15:34:42.952Z,69.10
2019-06-26T15:37:14.651Z,70.40
2019-06-26T15:39:45.275Z,70.30
2019-06-26T15:42:16.788Z,71.20
2019-06-26T15:44:47.939Z,69.40
2019-06-26T15:47:18.863Z,69.90
2019-06-26T15:49:50.407Z,70.10
2019-06-26T15:52:23.240Z,70.50
2019-06-26T15:54:54.168Z,70.30
2019-06-26T15:57:27.179Z,70.80
2019-06-26T15:59:58.775Z,70.20
2019-06-26T16:02:30.429Z,70.40
2019-06-26T16:05:01.796Z,70.20
2019-06-26T16:07:33.132Z,71.90
2019-06-26T16:10:04.215Z,70.70
2019-06-26T16:12:35.483Z,69.40
2019-06-26T16:15:08.702Z,70.00
2019-06-26T16:20:45.291Z,70.50
2019-06-26T16:23:16.839Z,70.40
2019-06-26T16:25:48.087Z,71.00
2019-06-26T16:28:19.264Z,71.40
2019-06-26T16:30:54.708Z,71.60
2019-06-26T16:33:25.719Z,70.40
2019-06-26T16:35:57.447Z,70.80
2019-06-26T16:40:59.205Z,70.30
2019-06-26T16:43:30.098Z,71.40
2019-06-26T16:46:00.984Z,70.70
2019-06-26T16:48:32.590Z,71.10
2019-06-26T16:56:07.187Z,70.30
2019-06-26T17:01:08.464Z,70.90
2019-06-26T17:16:12.071Z,73.70
2019-06-26T17:18:43.697Z,73.60
2019-06-26T17:21:14.586Z,73.70
2019-06-26T17:26:15.812Z,74.80
2019-06-26T17:28:46.979Z,76.30
2019-06-26T17:31:18.616Z,77.40
2019-06-26T17:33:50.403Z,77.40
2019-06-26T17:36:22.266Z,78.30
2019-06-26T17:38:52.803Z,78.20
2019-06-26T17:41:23.683Z,78.10
2019-06-26T17:43:55.536Z,77.90
2019-06-26T17:46:26.504Z,78.60
2019-06-26T17:48:57.785Z,79.10
2019-06-26T17:51:29.271Z,79.30
2019-06-26T17:54:00.094Z,80.10
2019-06-26T17:56:31.260Z,81.00
2019-06-26T17:59:02.711Z,81.60
2019-06-26T18:01:33.991Z,80.60
2019-06-26T18:04:06.145Z,82.50
2019-06-26T18:06:37.547Z,83.00
2019-06-26T18:09:12.359Z,82.40
2019-06-26T18:11:43.467Z,83.00
2019-06-26T18:14:15.208Z,82.70
2019-06-26T18:16:46.811Z,84.20
2019-06-26T18:19:17.710Z,84.50
2019-06-26T18:21:48.983Z,84.50
2019-06-26T18:24:20.531Z,85.60
2019-06-26T18:26:51.374Z,86.20
2019-06-26T18:29:22.398Z,86.70
2019-06-26T18:31:53.577Z,87.40
2019-06-26T18:34:24.752Z,87.20
2019-06-26T18:36:56.203Z,87.50
2019-06-26T18:39:27.778Z,87.30
2019-06-26T18:41:59.122Z,88.60
2019-06-26T18:44:30.040Z,89.60
2019-06-26T18:47:01.388Z,90.50
2019-06-26T18:49:32.758Z,90.60
2019-06-26T18:52:07.548Z,91.30
2019-06-26T18:54:37.039Z,91.60
2019-06-26T18:57:08.336Z,91.30
2019-06-26T18:59:42.188Z,91.60
2019-06-26T19:02:12.267Z,92.10
2019-06-26T19:04:42.818Z,98.10
2019-06-26T19:07:14.446Z,92.60
2019-06-26T19:09:45.682Z,92.50
2019-06-26T19:12:17.748Z,92.70
2019-06-26T19:14:48.319Z,93.00
2019-06-26T19:17:20.635Z,92.80
2019-06-26T19:19:51.998Z,93.40
2019-06-26T19:22:24.210Z,93.70
2019-06-26T19:24:55.828Z,94.20
2019-06-26T19:27:27.032Z,94.90
2019-06-26T19:29:58.803Z,94.40
2019-06-26T19:32:32.387Z,94.20
2019-06-26T19:35:18.594Z,95.70
2019-06-26T19:37:36.251Z,96.40
2019-06-26T19:40:09.254Z,96.50
2019-06-26T19:42:39.858Z,96.40
2019-06-26T19:45:12.203Z,97.30
2019-06-26T19:47:43.353Z,96.30
2019-06-26T19:50:15.011Z,96.70
2019-06-26T19:52:45.746Z,96.40
2019-06-26T19:57:48.171Z,98.20
2019-06-26T20:00:19.416Z,98.40
2019-06-26T20:02:50.483Z,99.30
2019-06-26T20:05:21.450Z,99.00
2019-06-26T20:07:53.534Z,99.70
2019-06-26T20:10:24.367Z,99.10
2019-06-26T20:12:56.058Z,99.30
2019-06-26T20:15:27.260Z,99.90
2019-06-26T20:17:58.591Z,99.80
2019-06-26T20:20:29.735Z,99.90
2019-06-26T20:23:01.034Z,99.90
2019-06-26T20:25:36.583Z,99.90
2019-06-26T20:28:07.555Z,99.90
2019-06-26T20:30:38.099Z,99.90
2019-06-26T20:33:09.079Z,99.90
2019-06-26T20:35:39.673Z,99.90
2019-06-26T20:38:10.875Z,99.70
2019-06-26T20:40:45.806Z,99.30
2019-06-26T20:43:16.024Z,99.30
2019-06-26T20:45:47.153Z,99.20
2019-06-26T20:48:17.779Z,99.20
2019-06-26T20:50:48.996Z,99.30
2019-06-26T20:53:20.031Z,99.10
2019-06-26T20:55:51.227Z,98.90
2019-06-26T20:58:22.442Z,99.60
2019-06-26T21:00:53.318Z,99.90
2019-06-26T21:03:24.567Z,99.90
2019-06-26T21:05:55.748Z,99.90
2019-06-26T21:08:29.397Z,98.10
2019-06-26T21:11:00.501Z,99.90
2019-06-26T21:13:32.000Z,99.90
2019-06-26T21:16:02.808Z,99.90
2019-06-26T21:18:33.745Z,99.90
2019-06-26T21:21:05.023Z,99.90
2019-06-26T21:23:36.545Z,99.90
2019-06-26T21:26:07.630Z,99.90
2019-06-26T21:28:38.874Z,99.90
2019-06-26T21:31:10.158Z,99.90
2019-06-26T21:33:41.341Z,99.90
2019-06-26T21:36:13.096Z,99.90
2019-06-26T21:38:44.343Z,99.90
2019-06-26T21:41:15.762Z,99.90
2019-06-26T21:43:47.001Z,99.90
2019-06-26T21:46:18.275Z,99.90
2019-06-26T21:48:49.876Z,99.90
2019-06-26T21:51:21.336Z,99.90
2019-06-26T21:53:52.858Z,99.90
2019-06-26T21:56:42.231Z,99.90
2019-06-26T21:59:31.660Z,99.90
2019-06-26T22:02:21.385Z,99.90
2019-06-26T22:04:56.887Z,99.90
2019-06-26T22:07:29.557Z,99.90
2019-06-26T22:10:02.715Z,99.90
2019-06-26T22:12:35.219Z,99.90
2019-06-26T22:15:06.191Z,99.90
2019-06-26T22:17:38.767Z,99.90
2019-06-26T22:20:12.769Z,99.90
2019-06-26T22:22:45.188Z,99.90
2019-06-26T22:25:16.947Z,99.90
2019-06-26T22:27:48.876Z,99.90
2019-06-26T22:32:50.698Z,99.90
2019-06-26T22:35:22.046Z,99.90
2019-06-26T22:37:53.615Z,99.90
2019-06-26T22:40:25.123Z,99.90
2019-06-26T22:42:56.994Z,99.90
2019-06-26T22:45:28.157Z,99.90
2019-06-26T22:47:58.700Z,99.90
2019-06-26T22:50:30.087Z,99.90
2019-06-26T22:53:01.400Z,99.90
2019-06-26T22:55:32.911Z,99.90
2019-06-26T22:58:06.236Z,99.90
2019-06-26T23:00:37.482Z,99.90
2019-06-26T23:03:08.695Z,99.90
2019-06-26T23:05:39.620Z,99.90
2019-06-26T23:08:10.707Z,99.90
2019-06-26T23:10:41.954Z,99.90
2019-06-26T23:13:13.459Z,99.90
2019-06-26T23:15:44.957Z,99.90
2019-06-26T23:18:15.957Z,99.90
2019-06-26T23:20:46.809Z,99.90
2019-06-26T23:23:17.641Z,99.90
2019-06-26T23:25:48.836Z,99.90
2019-06-26T23:28:19.459Z,99.90
2019-06-26T23:30:51.671Z,99.90
2019-06-26T23:33:23.167Z,99.90
2019-06-26T23:35:54.680Z,99.90
2019-06-26T23:38:26.292Z,99.90
2019-06-26T23:40:58.346Z,99.90
2019-06-26T23:43:29.510Z,99.90
2019-06-26T23:46:00.321Z,99.90
2019-06-26T23:48:31.501Z,99.90
2019-06-26T23:51:03.020Z,99.90
2019-06-26T23:53:34.237Z,99.90
2019-06-26T23:56:05.160Z,99.90
2019-06-26T23:58:36.654Z,99.90
